Elberon, Iowa
Current Conditions -  °F | °C
As of 9:15 PM on Tuesday 21 Oct 2014 (Local Time) from KGGI Reporting Station
Clear Clear  
Wind Chill: 44°   Ceiling: Unl
Heat Index: 48°   Visibility: 10mi
Dew Point: 38°   Wind: 10mph
Humidity: 69%   Direction: 100°E
Pressure: 30.18"   Gusts: NA
Location:  42.01°N, 92.32°W
Report Text: KGGI 220215Z AUTO 10009KT 10SM CLR 09/04 A3018 RMK AO2 T00900036
Loading
Personal Weather Stations






























Interactive Weather Map
Tropical Storm Tracking
New forecast layout! Learn more

10-Day Weather Forecast

Advertisements
Track Severe Weather on mobile